createdAt,value
2018-03-22T00:00:08.416Z,5.60
2018-03-22T00:02:35.895Z,5.60
2018-03-22T00:05:03.350Z,5.60
2018-03-22T00:07:30.843Z,5.60
2018-03-22T00:09:58.320Z,5.60
2018-03-22T00:12:25.818Z,5.60
2018-03-22T00:14:53.278Z,5.60
2018-03-22T00:17:20.766Z,5.60
2018-03-22T00:19:48.250Z,5.60
2018-03-22T00:25:16.742Z,5.60
2018-03-22T00:27:44.266Z,5.60
2018-03-22T00:30:11.754Z,5.60
2018-03-22T00:32:39.243Z,5.60
2018-03-22T00:35:06.705Z,5.60
2018-03-22T00:37:34.197Z,5.60
2018-03-22T00:40:01.653Z,5.60
2018-03-22T00:42:29.165Z,5.60
2018-03-22T00:44:57.381Z,5.60
2018-03-22T00:47:24.870Z,5.60
2018-03-22T00:49:52.385Z,5.60
2018-03-22T00:52:19.860Z,5.60
2018-03-22T00:54:47.345Z,5.60
2018-03-22T00:57:14.828Z,5.60
2018-03-22T00:59:42.306Z,5.60
2018-03-22T01:02:09.764Z,5.60
2018-03-22T01:04:37.245Z,5.60
2018-03-22T01:07:04.709Z,5.50
2018-03-22T01:09:32.189Z,5.50
2018-03-22T01:11:59.690Z,5.50
2018-03-22T01:14:27.937Z,5.50
2018-03-22T01:16:55.409Z,5.50
2018-03-22T01:19:23.720Z,5.50
2018-03-22T01:21:51.166Z,5.40
2018-03-22T01:24:18.621Z,5.40
2018-03-22T01:26:46.866Z,5.40
2018-03-22T01:29:14.354Z,5.40
2018-03-22T01:31:41.849Z,5.40
2018-03-22T01:34:09.301Z,5.40
2018-03-22T01:36:36.785Z,5.40
2018-03-22T01:39:04.237Z,5.40
2018-03-22T01:41:31.708Z,5.50
2018-03-22T01:43:59.177Z,5.40
2018-03-22T01:46:26.667Z,5.50
2018-03-22T01:48:54.229Z,5.50
2018-03-22T01:51:22.456Z,5.50
2018-03-22T01:53:49.950Z,5.50
2018-03-22T01:56:18.177Z,5.60
2018-03-22T01:58:45.649Z,5.60
2018-03-22T02:01:13.130Z,5.60
2018-03-22T02:03:40.587Z,5.60
2018-03-22T02:06:08.062Z,5.60
2018-03-22T02:08:35.508Z,5.60
2018-03-22T02:11:03.752Z,5.60
2018-03-22T02:13:31.217Z,5.60
2018-03-22T02:15:58.688Z,5.60
2018-03-22T02:18:26.160Z,5.60
2018-03-22T02:20:54.404Z,5.60
2018-03-22T02:23:21.873Z,5.50
2018-03-22T02:25:49.358Z,5.60
2018-03-22T02:28:17.601Z,5.60
2018-03-22T02:30:45.061Z,5.60
2018-03-22T02:33:12.577Z,5.60
2018-03-22T02:35:40.026Z,5.60
2018-03-22T02:38:07.478Z,5.60
2018-03-22T02:40:34.969Z,5.60
2018-03-22T02:43:02.442Z,5.60
2018-03-22T02:45:29.913Z,5.60
2018-03-22T02:47:57.368Z,5.60
2018-03-22T02:50:24.855Z,5.60
2018-03-22T02:52:52.322Z,5.60
2018-03-22T02:55:19.801Z,5.60
2018-03-22T02:57:47.284Z,5.60
2018-03-22T03:00:14.778Z,5.60
2018-03-22T03:02:42.242Z,5.60
2018-03-22T03:05:10.485Z,5.60
2018-03-22T03:07:37.965Z,5.60
2018-03-22T03:10:05.578Z,5.60
2018-03-22T03:12:33.045Z,5.60
2018-03-22T03:15:00.521Z,5.70
2018-03-22T03:17:27.998Z,5.70
2018-03-22T03:19:55.493Z,5.70
2018-03-22T03:22:22.956Z,5.70
2018-03-22T03:24:50.413Z,5.70
2018-03-22T03:27:17.892Z,5.70
2018-03-22T03:29:45.357Z,5.70
2018-03-22T03:32:12.833Z,5.80
2018-03-22T03:34:40.330Z,5.80
2018-03-22T03:37:07.794Z,5.80
2018-03-22T03:39:35.367Z,5.80
2018-03-22T03:42:02.858Z,5.80
2018-03-22T03:44:30.341Z,5.80
2018-03-22T03:46:57.812Z,5.80
2018-03-22T03:49:25.278Z,5.80
2018-03-22T03:51:52.976Z,5.90
2018-03-22T03:54:20.462Z,5.90
2018-03-22T03:56:47.920Z,5.90
2018-03-22T03:59:15.407Z,5.80
2018-03-22T04:01:42.864Z,5.80
2018-03-22T04:04:10.337Z,5.80
2018-03-22T04:06:38.584Z,5.80
2018-03-22T04:09:06.072Z,5.80
2018-03-22T04:11:34.329Z,5.80
2018-03-22T04:14:01.790Z,5.80
2018-03-22T04:16:29.264Z,5.80
2018-03-22T04:18:56.730Z,5.80
2018-03-22T04:21:24.969Z,5.80
2018-03-22T04:23:52.432Z,5.70
2018-03-22T04:26:19.925Z,5.80
2018-03-22T04:28:47.389Z,5.70
2018-03-22T04:31:14.850Z,5.70
2018-03-22T04:33:42.343Z,5.70
2018-03-22T04:36:09.825Z,5.60
2018-03-22T04:38:37.284Z,5.60
2018-03-22T04:41:04.772Z,5.60
2018-03-22T04:43:33.025Z,5.60
2018-03-22T04:46:00.481Z,5.50
2018-03-22T04:48:27.968Z,5.60
2018-03-22T04:50:57.328Z,5.50
2018-03-22T04:53:24.784Z,5.50
2018-03-22T04:55:52.256Z,5.50
2018-03-22T04:58:20.341Z,5.50
2018-03-22T05:00:48.574Z,5.50
2018-03-22T05:03:16.065Z,5.50
2018-03-22T05:05:43.542Z,5.50
2018-03-22T05:08:11.821Z,5.40
2018-03-22T05:10:40.070Z,5.40
2018-03-22T05:13:07.533Z,5.40
2018-03-22T05:15:35.017Z,5.40
2018-03-22T05:18:03.236Z,5.40
2018-03-22T05:20:30.763Z,5.40
2018-03-22T05:22:58.217Z,5.40
2018-03-22T05:25:25.698Z,5.30
2018-03-22T05:27:53.186Z,5.30
2018-03-22T05:30:20.640Z,5.20
2018-03-22T05:32:48.123Z,5.20
2018-03-22T05:35:15.589Z,5.10
2018-03-22T05:37:43.832Z,5.10
2018-03-22T05:40:11.314Z,5.00
2018-03-22T05:42:38.777Z,5.10
2018-03-22T05:45:06.241Z,5.10
2018-03-22T05:47:33.712Z,5.20
2018-03-22T05:50:01.177Z,5.20
2018-03-22T05:52:28.657Z,5.20
2018-03-22T05:54:56.137Z,5.20
2018-03-22T05:57:23.585Z,5.20
2018-03-22T05:59:51.108Z,5.20
2018-03-22T06:02:18.585Z,5.20
2018-03-22T06:04:46.085Z,5.30
2018-03-22T06:07:13.540Z,5.30
2018-03-22T06:09:41.002Z,5.30
2018-03-22T06:12:08.472Z,5.20
2018-03-22T06:14:35.929Z,5.30
2018-03-22T06:17:03.406Z,5.30
2018-03-22T06:19:30.877Z,5.30
2018-03-22T06:21:58.355Z,5.30
2018-03-22T06:24:25.833Z,5.30
2018-03-22T06:26:53.310Z,5.30
2018-03-22T06:29:20.801Z,5.30
2018-03-22T06:31:49.022Z,5.40
2018-03-22T06:34:17.265Z,5.40
2018-03-22T06:36:44.749Z,5.40
2018-03-22T06:39:12.241Z,5.40
2018-03-22T06:41:39.698Z,5.40
2018-03-22T06:44:07.147Z,5.40
2018-03-22T06:46:34.634Z,5.40
2018-03-22T06:49:02.865Z,5.40
2018-03-22T06:51:30.355Z,5.40
2018-03-22T06:53:57.830Z,5.40
2018-03-22T06:56:26.071Z,5.50
2018-03-22T06:58:53.613Z,5.50
2018-03-22T07:01:21.101Z,5.50
2018-03-22T07:03:48.596Z,5.50
2018-03-22T07:06:16.081Z,5.50
2018-03-22T07:08:43.650Z,5.60
2018-03-22T07:11:11.121Z,5.60
2018-03-22T07:13:38.573Z,5.60
2018-03-22T07:16:06.057Z,5.60
2018-03-22T07:18:33.505Z,5.70
2018-03-22T07:21:00.952Z,5.70
2018-03-22T07:23:28.432Z,5.70
2018-03-22T07:25:55.893Z,5.70
2018-03-22T07:28:23.360Z,5.70
2018-03-22T07:30:50.814Z,5.80
2018-03-22T07:33:18.301Z,5.80
2018-03-22T07:35:45.772Z,5.80
2018-03-22T07:38:13.257Z,5.80
2018-03-22T07:40:40.762Z,5.90
2018-03-22T07:43:14.613Z,5.90
2018-03-22T07:45:42.095Z,6.00
2018-03-22T07:48:09.557Z,6.00
2018-03-22T07:50:37.012Z,6.00
2018-03-22T07:53:04.498Z,6.00
2018-03-22T07:55:31.997Z,6.10
2018-03-22T07:57:59.457Z,6.10
2018-03-22T08:00:26.938Z,6.10
2018-03-22T08:03:01.955Z,6.10
2018-03-22T08:05:29.427Z,6.10
2018-03-22T08:07:56.916Z,6.20
2018-03-22T08:10:25.151Z,6.30
2018-03-22T08:12:52.633Z,6.30
2018-03-22T08:15:20.080Z,6.30
2018-03-22T08:17:47.530Z,6.30
2018-03-22T08:20:15.045Z,6.30
2018-03-22T08:22:42.498Z,6.40
2018-03-22T08:25:10.741Z,6.50
2018-03-22T08:27:38.209Z,6.50
2018-03-22T08:30:06.460Z,6.50
2018-03-22T08:32:34.123Z,6.50
2018-03-22T08:35:01.603Z,6.60
2018-03-22T08:37:29.100Z,6.60
2018-03-22T08:39:56.544Z,6.70
2018-03-22T08:42:24.766Z,6.70
2018-03-22T08:44:53.013Z,6.70
2018-03-22T08:47:20.489Z,6.70
2018-03-22T08:49:48.001Z,6.70
2018-03-22T08:52:16.246Z,6.90
2018-03-22T08:54:43.716Z,6.90
2018-03-22T08:57:11.172Z,7.00
2018-03-22T08:59:38.666Z,7.00
2018-03-22T09:02:06.906Z,7.10
2018-03-22T09:04:34.389Z,7.10
2018-03-22T09:07:02.612Z,7.20
2018-03-22T09:09:30.107Z,7.20
2018-03-22T09:11:57.566Z,7.30
2018-03-22T09:14:25.039Z,7.40
2018-03-22T09:16:52.518Z,7.40
2018-03-22T09:19:20.005Z,7.40
2018-03-22T09:21:47.482Z,7.50
2018-03-22T09:24:14.946Z,7.50
2018-03-22T09:26:48.136Z,7.60
2018-03-22T09:29:15.593Z,7.60
2018-03-22T09:31:43.074Z,7.70
2018-03-22T09:34:10.537Z,7.70
2018-03-22T09:36:38.032Z,7.80
2018-03-22T09:39:05.551Z,7.80
2018-03-22T09:41:33.029Z,7.80
2018-03-22T09:44:01.258Z,7.70
2018-03-22T09:46:28.733Z,7.70
2018-03-22T09:48:56.201Z,7.80
2018-03-22T09:51:23.672Z,7.70
2018-03-22T09:53:51.888Z,7.80
2018-03-22T09:56:19.366Z,7.80
2018-03-22T09:58:46.822Z,7.90
2018-03-22T10:01:14.293Z,8.00
2018-03-22T10:03:41.771Z,8.00
2018-03-22T10:06:10.016Z,8.20
2018-03-22T10:08:37.527Z,8.20
2018-03-22T10:11:04.996Z,8.20
2018-03-22T10:13:32.468Z,8.20
2018-03-22T10:15:59.949Z,8.30
2018-03-22T10:18:27.478Z,8.40
2018-03-22T10:20:54.949Z,8.40
2018-03-22T10:23:22.601Z,8.50
2018-03-22T10:25:50.096Z,8.50
2018-03-22T10:28:17.549Z,8.60
2018-03-22T10:30:45.022Z,8.70
2018-03-22T10:33:12.506Z,8.70
2018-03-22T10:35:40.742Z,9.00
2018-03-22T10:38:08.225Z,8.90
2018-03-22T10:40:35.673Z,9.00
2018-03-22T10:43:03.142Z,9.10
2018-03-22T10:45:30.616Z,9.30
2018-03-22T10:47:58.860Z,9.30
2018-03-22T10:50:26.340Z,9.30
2018-03-22T10:52:54.553Z,9.40
2018-03-22T10:55:22.030Z,9.40
2018-03-22T10:57:49.472Z,9.50
2018-03-22T11:00:22.649Z,9.70
2018-03-22T11:02:54.087Z,10.00
2018-03-22T11:05:22.317Z,10.50
2018-03-22T11:07:49.796Z,10.50
2018-03-22T11:10:17.289Z,10.60
2018-03-22T11:12:45.500Z,10.60
2018-03-22T11:15:12.985Z,10.70
2018-03-22T11:17:40.441Z,10.80
2018-03-22T11:20:07.952Z,10.90
2018-03-22T11:22:35.405Z,11.00
2018-03-22T11:25:02.865Z,11.10
2018-03-22T11:27:30.360Z,11.40
2018-03-22T11:29:57.801Z,11.60
2018-03-22T11:32:25.285Z,11.80
2018-03-22T11:34:52.741Z,12.00
2018-03-22T11:37:20.226Z,12.10
2018-03-22T11:39:47.703Z,12.00
2018-03-22T11:42:15.152Z,11.90
2018-03-22T11:44:42.654Z,11.70
2018-03-22T11:47:10.160Z,11.50
2018-03-22T11:49:38.432Z,11.10
2018-03-22T11:52:05.904Z,11.00
2018-03-22T11:54:34.137Z,10.80
2018-03-22T11:57:01.624Z,10.70
2018-03-22T11:59:29.076Z,10.70
2018-03-22T12:01:56.576Z,10.50
2018-03-22T12:04:24.025Z,10.50
2018-03-22T12:06:51.483Z,10.40
2018-03-22T12:09:18.970Z,10.40
2018-03-22T12:11:46.424Z,10.40
2018-03-22T12:14:13.892Z,10.50
2018-03-22T12:16:41.357Z,10.60
2018-03-22T12:19:08.849Z,10.60
2018-03-22T12:21:36.361Z,10.80
2018-03-22T12:24:03.813Z,11.10
2018-03-22T12:26:31.303Z,11.30
2018-03-22T12:28:58.761Z,11.50
2018-03-22T12:31:26.246Z,11.80
2018-03-22T12:33:54.477Z,12.00
2018-03-22T12:36:21.972Z,12.00
2018-03-22T12:38:49.417Z,12.10
2018-03-22T12:41:16.886Z,12.20
2018-03-22T12:43:44.412Z,12.50
2018-03-22T12:46:11.853Z,13.10
2018-03-22T12:48:39.389Z,13.20
2018-03-22T12:51:06.837Z,13.10
2018-03-22T12:53:35.127Z,12.80
2018-03-22T12:56:02.589Z,12.80
2018-03-22T12:58:30.080Z,12.70
2018-03-22T13:00:57.545Z,12.50
2018-03-22T13:03:25.021Z,12.50
2018-03-22T13:05:52.509Z,12.50
2018-03-22T13:08:20.765Z,12.40
2018-03-22T13:10:48.217Z,12.40
2018-03-22T13:13:15.701Z,12.20
2018-03-22T13:15:43.153Z,12.20
2018-03-22T13:18:10.744Z,12.20
2018-03-22T13:20:38.192Z,12.30
2018-03-22T13:23:05.669Z,12.60
2018-03-22T13:25:33.126Z,13.10
2018-03-22T13:28:00.577Z,13.80
2018-03-22T13:30:28.049Z,14.40
2018-03-22T13:32:55.502Z,14.70
2018-03-22T13:35:22.968Z,14.60
2018-03-22T13:37:50.433Z,14.30
2018-03-22T13:40:17.912Z,14.00
2018-03-22T13:42:45.381Z,13.60
2018-03-22T13:45:12.837Z,13.20
2018-03-22T13:47:40.309Z,13.10
2018-03-22T13:50:07.791Z,13.00
2018-03-22T13:52:35.237Z,13.00
2018-03-22T13:55:03.485Z,12.90
2018-03-22T13:57:30.942Z,12.90
2018-03-22T13:59:58.396Z,12.70
2018-03-22T14:02:25.873Z,12.60
2018-03-22T14:04:53.341Z,12.50
2018-03-22T14:07:21.577Z,12.40
2018-03-22T14:09:49.031Z,12.40
2018-03-22T14:12:16.523Z,12.40
2018-03-22T14:14:43.973Z,12.30
2018-03-22T14:17:11.421Z,12.20
2018-03-22T14:19:38.890Z,12.20
2018-03-22T14:22:06.336Z,12.00
2018-03-22T14:24:33.830Z,11.90
2018-03-22T14:27:01.284Z,11.80
2018-03-22T14:29:28.742Z,11.80
2018-03-22T14:31:56.227Z,12.00
2018-03-22T14:34:23.724Z,12.30
2018-03-22T14:36:51.208Z,12.50
2018-03-22T14:39:19.646Z,12.70
2018-03-22T14:41:47.920Z,13.00
2018-03-22T14:44:15.381Z,13.00
2018-03-22T14:46:42.860Z,13.10
2018-03-22T14:49:10.362Z,13.00
2018-03-22T14:51:37.805Z,12.80
2018-03-22T14:54:06.018Z,12.20
2018-03-22T14:56:36.801Z,12.30
2018-03-22T14:59:05.047Z,12.40
2018-03-22T15:01:32.611Z,12.40
2018-03-22T15:04:00.034Z,12.70
2018-03-22T15:06:27.492Z,12.90
2018-03-22T15:08:54.976Z,13.10
2018-03-22T15:11:22.429Z,13.00
2018-03-22T15:13:49.886Z,13.00
2018-03-22T15:16:17.361Z,13.00
2018-03-22T15:18:44.808Z,13.00
2018-03-22T15:21:12.343Z,12.90
2018-03-22T15:23:39.829Z,12.70
2018-03-22T15:26:07.288Z,12.50
2018-03-22T15:28:34.775Z,12.30
2018-03-22T15:31:02.573Z,12.20
2018-03-22T15:33:30.084Z,12.00
2018-03-22T15:35:57.552Z,11.90
2018-03-22T15:38:25.014Z,11.80
2018-03-22T15:40:52.495Z,11.70
2018-03-22T15:43:20.708Z,11.60
2018-03-22T15:45:48.185Z,11.60
2018-03-22T15:48:15.649Z,11.50
2018-03-22T15:50:43.128Z,11.50
2018-03-22T15:53:11.374Z,11.50
2018-03-22T15:55:38.845Z,11.40
2018-03-22T15:58:06.300Z,11.50
2018-03-22T16:00:33.757Z,11.50
2018-03-22T16:03:01.232Z,11.60
2018-03-22T16:05:28.692Z,11.60
2018-03-22T16:07:56.932Z,11.70
2018-03-22T16:10:24.400Z,11.70
2018-03-22T16:12:52.669Z,11.80
2018-03-22T16:15:20.121Z,11.70
2018-03-22T16:17:47.593Z,11.80
2018-03-22T16:20:15.069Z,11.80
2018-03-22T16:22:42.533Z,11.80
2018-03-22T16:25:10.021Z,12.00
2018-03-22T16:27:37.469Z,12.10
2018-03-22T16:30:06.773Z,12.20
2018-03-22T16:32:34.240Z,12.20
2018-03-22T16:35:01.710Z,12.20
2018-03-22T16:37:29.175Z,12.20
2018-03-22T16:39:56.657Z,12.20
2018-03-22T16:42:24.132Z,12.10
2018-03-22T16:44:51.601Z,12.00
2018-03-22T16:47:19.077Z,11.90
2018-03-22T16:49:46.564Z,11.70
2018-03-22T16:52:14.289Z,11.70
2018-03-22T16:54:42.539Z,11.60
2018-03-22T16:57:10.005Z,11.50
2018-03-22T16:59:37.628Z,11.50
2018-03-22T17:02:05.133Z,11.50
2018-03-22T17:04:33.413Z,11.40
2018-03-22T17:07:00.933Z,11.30
2018-03-22T17:09:28.434Z,11.30
2018-03-22T17:11:55.893Z,11.20
2018-03-22T17:14:23.372Z,11.10
2018-03-22T17:16:50.856Z,11.10
2018-03-22T17:19:18.333Z,11.10
2018-03-22T17:21:45.804Z,11.00
2018-03-22T17:24:13.256Z,10.90
2018-03-22T17:26:41.033Z,10.90
2018-03-22T17:29:08.548Z,10.90
2018-03-22T17:31:36.008Z,10.90
2018-03-22T17:34:03.503Z,10.80
2018-03-22T17:36:31.156Z,10.70
2018-03-22T17:38:58.674Z,10.70
2018-03-22T17:41:26.149Z,10.70
2018-03-22T17:43:53.628Z,10.70
2018-03-22T17:46:21.088Z,10.70
2018-03-22T17:48:48.946Z,10.60
2018-03-22T17:51:16.583Z,10.70
2018-03-22T17:53:44.057Z,10.70
2018-03-22T17:56:11.539Z,10.70
2018-03-22T17:58:39.132Z,10.70
2018-03-22T18:01:06.585Z,10.70
2018-03-22T18:03:34.053Z,10.70
2018-03-22T18:06:01.504Z,10.60
2018-03-22T18:08:29.039Z,10.50
2018-03-22T18:10:56.449Z,10.40
2018-03-22T18:13:23.925Z,10.30
2018-03-22T18:15:51.510Z,10.30
2018-03-22T18:18:19.056Z,10.20
2018-03-22T18:20:46.510Z,10.10
2018-03-22T18:23:13.997Z,10.10
2018-03-22T18:25:41.486Z,10.10
2018-03-22T18:28:09.742Z,10.10
2018-03-22T18:30:37.195Z,10.00
2018-03-22T18:33:04.669Z,10.00
2018-03-22T18:35:32.942Z,9.90
2018-03-22T18:38:00.358Z,9.80
2018-03-22T18:40:27.828Z,9.80
2018-03-22T18:42:55.582Z,9.70
2018-03-22T18:45:23.347Z,9.70
2018-03-22T18:47:51.078Z,9.70
2018-03-22T18:50:19.522Z,9.60
2018-03-22T18:52:47.872Z,9.60
2018-03-22T18:55:15.688Z,9.60
2018-03-22T18:57:43.415Z,9.60
2018-03-22T19:00:12.047Z,9.60
2018-03-22T19:02:39.733Z,9.60
2018-03-22T19:05:07.430Z,9.60
2018-03-22T19:07:35.215Z,9.60
2018-03-22T19:10:03.014Z,9.60
2018-03-22T19:12:30.730Z,9.50
2018-03-22T19:14:58.450Z,9.50
2018-03-22T19:17:26.170Z,9.50
2018-03-22T19:19:53.912Z,9.40
2018-03-22T19:22:26.061Z,9.40
2018-03-22T19:24:54.616Z,9.30
2018-03-22T19:27:22.293Z,9.30
2018-03-22T19:29:50.673Z,9.30
2018-03-22T19:32:19.266Z,9.30
2018-03-22T19:34:49.365Z,9.30
2018-03-22T19:37:17.141Z,9.30
2018-03-22T19:39:45.014Z,9.30
2018-03-22T19:42:12.827Z,9.30
2018-03-22T19:44:40.638Z,9.30
2018-03-22T19:47:10.878Z,9.30
2018-03-22T19:49:38.561Z,9.30
2018-03-22T19:52:06.052Z,9.30
2018-03-22T19:54:34.360Z,9.40
2018-03-22T19:57:01.903Z,9.30
2018-03-22T19:59:30.241Z,9.40
2018-03-22T20:01:57.741Z,9.30
2018-03-22T20:04:25.347Z,9.30
2018-03-22T20:06:52.867Z,9.30
2018-03-22T20:09:21.301Z,9.30
2018-03-22T20:11:48.935Z,9.20
2018-03-22T20:14:16.424Z,9.20
2018-03-22T20:16:44.019Z,9.20
2018-03-22T20:19:11.601Z,9.10
2018-03-22T20:21:39.133Z,9.10
2018-03-22T20:24:06.620Z,9.00
2018-03-22T20:26:34.267Z,9.00
2018-03-22T20:29:02.214Z,9.00
2018-03-22T20:31:29.911Z,8.90
2018-03-22T20:33:57.518Z,8.90
2018-03-22T20:36:24.984Z,8.90
2018-03-22T20:38:52.726Z,8.80
2018-03-22T20:41:20.312Z,8.80
2018-03-22T20:43:47.876Z,8.70
2018-03-22T20:46:15.332Z,8.60
2018-03-22T20:48:42.839Z,8.50
2018-03-22T20:51:10.559Z,8.40
2018-03-22T20:53:38.143Z,8.20
2018-03-22T20:56:05.672Z,8.10
2018-03-22T20:58:33.243Z,8.00
2018-03-22T21:01:01.739Z,8.10
2018-03-22T21:03:29.981Z,8.10
2018-03-22T21:05:57.577Z,8.10
2018-03-22T21:08:25.260Z,8.10
2018-03-22T21:10:53.473Z,8.20
2018-03-22T21:13:21.717Z,8.20
2018-03-22T21:15:49.169Z,8.20
2018-03-22T21:18:16.648Z,8.20
2018-03-22T21:20:44.144Z,8.20
2018-03-22T21:23:11.611Z,8.20
2018-03-22T21:25:39.099Z,8.10
2018-03-22T21:28:07.321Z,8.00
2018-03-22T21:30:34.789Z,8.00
2018-03-22T21:33:02.274Z,8.00
2018-03-22T21:35:29.721Z,7.90
2018-03-22T21:37:57.176Z,7.80
2018-03-22T21:40:24.744Z,7.80
2018-03-22T21:42:52.200Z,7.70
2018-03-22T21:45:19.669Z,7.60
2018-03-22T21:47:47.136Z,7.50
2018-03-22T21:50:14.616Z,7.50
2018-03-22T21:52:46.801Z,7.60
2018-03-22T21:55:14.297Z,7.60
2018-03-22T21:57:41.745Z,7.60
2018-03-22T22:00:09.243Z,7.60
2018-03-22T22:02:36.689Z,7.70
2018-03-22T22:05:04.909Z,7.70
2018-03-22T22:07:32.392Z,7.70
2018-03-22T22:09:59.840Z,7.70
2018-03-22T22:12:28.077Z,7.70
2018-03-22T22:14:55.556Z,7.70
2018-03-22T22:17:23.008Z,7.80
2018-03-22T22:19:50.458Z,7.80
2018-03-22T22:22:17.949Z,7.80
2018-03-22T22:24:45.405Z,7.80
2018-03-22T22:27:13.624Z,7.90
2018-03-22T22:29:41.202Z,7.90
2018-03-22T22:32:08.652Z,8.00
2018-03-22T22:34:36.134Z,8.00
2018-03-22T22:37:03.589Z,8.00
2018-03-22T22:39:31.060Z,8.00
2018-03-22T22:41:58.512Z,8.00
2018-03-22T22:44:25.981Z,8.00
2018-03-22T22:46:53.435Z,8.00
2018-03-22T22:49:20.908Z,8.00
2018-03-22T22:51:48.386Z,8.00
2018-03-22T22:54:15.833Z,8.00
2018-03-22T22:56:43.342Z,8.00
2018-03-22T22:59:10.793Z,8.00
2018-03-22T23:01:38.268Z,8.10
2018-03-22T23:04:05.748Z,8.10
2018-03-22T23:06:33.202Z,8.10
2018-03-22T23:09:00.672Z,8.10
2018-03-22T23:11:28.125Z,8.10
2018-03-22T23:13:55.610Z,8.10
2018-03-22T23:16:23.102Z,8.10
2018-03-22T23:18:51.341Z,8.10
2018-03-22T23:21:18.809Z,8.10
2018-03-22T23:23:46.319Z,8.10
2018-03-22T23:26:13.797Z,8.10
2018-03-22T23:28:41.249Z,8.20
2018-03-22T23:31:08.693Z,8.20
2018-03-22T23:33:36.174Z,8.20
2018-03-22T23:36:03.623Z,8.20
2018-03-22T23:38:31.072Z,8.20
2018-03-22T23:40:58.549Z,8.30
2018-03-22T23:43:25.996Z,8.30
2018-03-22T23:45:53.465Z,8.30
2018-03-22T23:48:20.936Z,8.30
2018-03-22T23:50:48.412Z,8.30
2018-03-22T23:53:15.897Z,8.30
2018-03-22T23:55:43.348Z,8.40
2018-03-22T23:58:10.801Z,8.40
